createdAt,value
2017-11-29T00:03:00.110Z,98975.52
2017-11-29T00:06:01.601Z,98974.26
2017-11-29T00:09:03.125Z,98970.01
2017-11-29T00:12:04.603Z,98970.94
2017-11-29T00:18:14.413Z,98970.31
2017-11-29T00:21:15.817Z,98983.44
2017-11-29T00:24:17.312Z,98972.49
2017-11-29T00:27:18.797Z,98971.06
2017-11-29T00:30:20.371Z,98970.02
2017-11-29T00:33:22.525Z,98979.00
2017-11-29T00:36:24.016Z,98982.16
2017-11-29T00:39:25.545Z,98976.53
2017-11-29T00:42:26.978Z,98973.66
2017-11-29T00:45:28.496Z,98968.20
2017-11-29T00:48:30.694Z,98977.18
2017-11-29T00:51:32.189Z,98971.87
2017-11-29T00:54:33.603Z,98977.19
2017-11-29T00:57:35.124Z,98965.92
2017-11-29T01:00:37.696Z,98964.36
2017-11-29T01:03:39.860Z,98972.61
2017-11-29T01:06:42.051Z,98970.06
2017-11-29T01:09:44.230Z,98966.36
2017-11-29T01:12:46.436Z,98967.20
2017-11-29T01:15:47.906Z,98950.46
2017-11-29T01:18:49.357Z,98953.78
2017-11-29T01:21:50.792Z,98966.70
2017-11-29T01:24:52.265Z,98969.14
2017-11-29T01:27:53.740Z,98971.17
2017-11-29T01:30:55.885Z,98965.17
2017-11-29T01:33:57.334Z,98964.70
2017-11-29T01:36:58.768Z,98964.61
2017-11-29T01:40:00.192Z,98953.20
2017-11-29T01:43:01.707Z,98958.05
2017-11-29T01:46:03.174Z,98960.99
2017-11-29T01:49:05.423Z,98954.47
2017-11-29T01:52:06.801Z,98963.92
2017-11-29T01:55:09.021Z,98962.52
2017-11-29T01:58:10.497Z,98948.10
2017-11-29T02:01:11.977Z,98954.69
2017-11-29T02:04:14.117Z,98963.20
2017-11-29T02:07:15.573Z,98950.26
2017-11-29T02:10:17.059Z,98958.77
2017-11-29T02:13:19.171Z,98957.59
2017-11-29T02:16:20.613Z,98954.52
2017-11-29T02:19:22.032Z,98950.81
2017-11-29T02:22:24.207Z,98956.59
2017-11-29T02:25:25.638Z,98947.75
2017-11-29T02:28:27.132Z,98944.94
2017-11-29T02:31:28.597Z,98947.11
2017-11-29T02:34:30.071Z,98940.67
2017-11-29T02:37:31.547Z,98944.19
2017-11-29T02:40:51.473Z,98940.44
2017-11-29T02:43:52.972Z,98945.47
2017-11-29T02:46:54.431Z,98938.73
2017-11-29T02:49:55.926Z,98949.22
2017-11-29T02:52:57.418Z,98942.68
2017-11-29T02:55:58.852Z,98938.32
2017-11-29T02:59:00.536Z,98929.88
2017-11-29T03:02:01.959Z,98930.37
2017-11-29T03:05:03.398Z,98931.66
2017-11-29T03:08:04.815Z,98927.45
2017-11-29T03:11:06.969Z,98936.95
2017-11-29T03:14:08.407Z,98937.08
2017-11-29T03:17:09.842Z,98935.06
2017-11-29T03:20:11.277Z,98933.73
2017-11-29T03:23:12.662Z,98935.72
2017-11-29T03:26:14.121Z,98943.41
2017-11-29T03:29:15.531Z,98934.55
2017-11-29T03:32:16.947Z,98934.10
2017-11-29T03:35:19.151Z,98935.69
2017-11-29T03:38:20.545Z,98940.83
2017-11-29T03:41:21.914Z,98933.75
2017-11-29T03:44:24.073Z,98937.92
2017-11-29T03:47:25.506Z,98938.28
2017-11-29T03:50:26.911Z,98931.29
2017-11-29T03:53:28.328Z,98929.44
2017-11-29T03:56:29.705Z,98927.83
2017-11-29T03:59:31.913Z,98926.27
2017-11-29T04:02:33.366Z,98936.52
2017-11-29T04:05:34.755Z,98921.24
2017-11-29T04:08:36.302Z,98925.64
2017-11-29T04:11:37.711Z,98924.02
2017-11-29T04:14:39.213Z,98928.38
2017-11-29T04:17:40.629Z,98925.72
2017-11-29T04:20:42.098Z,98912.30
2017-11-29T04:23:43.499Z,98920.72
2017-11-29T04:26:45.667Z,98918.23
2017-11-29T04:29:47.828Z,98913.55
2017-11-29T04:32:49.953Z,98912.91
2017-11-29T04:35:51.386Z,98912.56
2017-11-29T04:38:52.752Z,98908.17
2017-11-29T04:41:54.214Z,98908.11
2017-11-29T04:44:55.597Z,98918.64
2017-11-29T04:47:57.716Z,98916.33
2017-11-29T04:50:59.177Z,98915.48
2017-11-29T04:54:00.601Z,98912.75
2017-11-29T04:57:02.132Z,98909.23
2017-11-29T05:00:04.329Z,98920.73
2017-11-29T05:03:05.812Z,98915.38
2017-11-29T05:06:07.321Z,98919.53
2017-11-29T05:09:09.605Z,98926.20
2017-11-29T05:12:11.089Z,98925.91
2017-11-29T05:15:12.555Z,98915.76
2017-11-29T05:18:14.033Z,98920.47
2017-11-29T05:21:16.227Z,98914.78
2017-11-29T05:24:17.708Z,98916.27
2017-11-29T05:27:19.143Z,98912.91
2017-11-29T05:30:20.633Z,98921.67
2017-11-29T05:33:22.152Z,98916.84
2017-11-29T05:36:23.579Z,98938.60
2017-11-29T05:39:25.014Z,98928.34
2017-11-29T05:42:27.184Z,98925.61
2017-11-29T05:45:28.650Z,98917.19
2017-11-29T05:48:30.818Z,98924.95
2017-11-29T05:51:32.986Z,98930.94
2017-11-29T05:54:35.205Z,98929.63
2017-11-29T05:57:36.744Z,98921.73
2017-11-29T06:00:38.215Z,98929.61
2017-11-29T06:03:39.677Z,98925.71
2017-11-29T06:06:41.815Z,98935.19
2017-11-29T06:09:43.230Z,98933.23
2017-11-29T06:12:45.424Z,98932.67
2017-11-29T06:15:46.842Z,98941.44
2017-11-29T06:18:49.030Z,98923.44
2017-11-29T06:21:51.233Z,98937.92
2017-11-29T06:24:52.706Z,98941.41
2017-11-29T06:27:54.146Z,98932.58
2017-11-29T06:30:55.527Z,98943.34
2017-11-29T06:33:57.094Z,98943.38
2017-11-29T06:36:58.464Z,98945.27
2017-11-29T06:40:00.515Z,98947.48
2017-11-29T06:43:01.797Z,98955.87
2017-11-29T06:46:03.136Z,98949.73
2017-11-29T06:49:05.179Z,98950.83
2017-11-29T06:52:06.464Z,98945.84
2017-11-29T06:55:07.781Z,98948.44
2017-11-29T06:58:09.114Z,98959.45
2017-11-29T07:01:10.450Z,98952.15
2017-11-29T07:04:11.808Z,98957.95
2017-11-29T07:07:13.443Z,98962.42
2017-11-29T07:10:14.744Z,98960.03
2017-11-29T07:13:16.770Z,98971.70
2017-11-29T07:16:18.050Z,98976.33
2017-11-29T07:19:19.358Z,98981.64
2017-11-29T07:22:20.701Z,98978.05
2017-11-29T07:25:22.022Z,98987.92
2017-11-29T07:28:24.128Z,98992.48
2017-11-29T07:31:25.430Z,98992.68
2017-11-29T07:34:27.496Z,99000.88
2017-11-29T07:37:29.549Z,99003.64
2017-11-29T07:40:30.849Z,99001.87
2017-11-29T07:43:32.173Z,99003.98
2017-11-29T07:46:33.578Z,99017.02
2017-11-29T07:49:34.984Z,99004.05
2017-11-29T07:52:36.312Z,99008.81
2017-11-29T07:55:38.402Z,99010.34
2017-11-29T07:58:40.255Z,99016.52
2017-11-29T08:01:41.648Z,99009.87
2017-11-29T08:04:42.917Z,99019.94
2017-11-29T08:07:44.233Z,99013.94
2017-11-29T08:10:45.612Z,99000.72
2017-11-29T08:13:47.438Z,99014.55
2017-11-29T08:16:48.844Z,99019.30
2017-11-29T08:19:50.916Z,99022.31
2017-11-29T08:22:53.013Z,99021.70
2017-11-29T08:25:54.345Z,99027.15
2017-11-29T08:28:55.790Z,99027.91
2017-11-29T08:31:57.914Z,99018.91
2017-11-29T08:34:59.468Z,99011.47
2017-11-29T08:38:00.905Z,99028.98
2017-11-29T08:41:02.337Z,99027.44
2017-11-29T08:44:03.702Z,99029.73
2017-11-29T08:47:05.158Z,99028.88
2017-11-29T08:50:06.510Z,99026.29
2017-11-29T08:53:07.924Z,99023.88
2017-11-29T08:56:10.049Z,99028.91
2017-11-29T08:59:11.431Z,99028.20
2017-11-29T09:02:13.521Z,99023.91
2017-11-29T09:05:14.950Z,99038.59
2017-11-29T09:08:17.028Z,99040.59
2017-11-29T09:11:19.148Z,99034.70
2017-11-29T09:14:20.611Z,99036.09
2017-11-29T09:17:21.997Z,99042.06
2017-11-29T09:20:24.103Z,99041.98
2017-11-29T09:23:25.537Z,99046.75
2017-11-29T09:26:26.894Z,99048.13
2017-11-29T09:29:28.269Z,99035.66
2017-11-29T09:32:29.645Z,99042.14
2017-11-29T09:35:31.114Z,99049.81
2017-11-29T09:38:33.271Z,99055.80
2017-11-29T09:41:34.706Z,99054.85
2017-11-29T09:44:36.877Z,99059.41
2017-11-29T09:47:38.473Z,99057.66
2017-11-29T09:50:40.602Z,99058.57
2017-11-29T09:53:41.981Z,99058.92
2017-11-29T09:56:44.118Z,99058.27
2017-11-29T09:59:45.556Z,99066.11
2017-11-29T10:02:54.140Z,99057.39
2017-11-29T10:05:56.248Z,99059.81
2017-11-29T10:08:57.620Z,99067.09
2017-11-29T10:11:58.960Z,99066.09
2017-11-29T10:15:00.314Z,99061.00
2017-11-29T10:18:01.701Z,99068.70
2017-11-29T10:21:03.808Z,99069.75
2017-11-29T10:24:05.169Z,99065.73
2017-11-29T10:27:06.490Z,99053.17
2017-11-29T10:30:07.880Z,99053.97
2017-11-29T10:33:09.246Z,99052.38
2017-11-29T10:36:10.620Z,99056.37
2017-11-29T10:39:12.701Z,99049.23
2017-11-29T10:42:14.130Z,99047.44
2017-11-29T10:45:16.272Z,99056.98
2017-11-29T10:48:17.602Z,99053.08
2017-11-29T10:51:18.948Z,99050.47
2017-11-29T10:54:20.253Z,99047.45
2017-11-29T10:57:22.381Z,99048.14
2017-11-29T11:00:24.561Z,99051.34
2017-11-29T11:03:25.914Z,99055.80
2017-11-29T11:06:27.274Z,99053.38
2017-11-29T11:09:28.670Z,99052.53
2017-11-29T11:12:30.053Z,99042.70
2017-11-29T11:15:31.393Z,99050.39
2017-11-29T11:18:32.799Z,99047.69
2017-11-29T11:21:34.933Z,99042.58
2017-11-29T11:24:36.375Z,99046.40
2017-11-29T11:27:37.762Z,99042.02
2017-11-29T11:30:39.890Z,99042.03
2017-11-29T11:33:41.318Z,99044.73
2017-11-29T11:36:42.692Z,99041.08
2017-11-29T11:39:44.037Z,99042.69
2017-11-29T11:42:45.546Z,99038.64
2017-11-29T11:45:47.669Z,99032.86
2017-11-29T11:48:49.050Z,99037.04
2017-11-29T11:51:51.139Z,99022.78
2017-11-29T11:54:52.620Z,99021.39
2017-11-29T11:57:54.057Z,99017.13
2017-11-29T12:00:55.621Z,99022.67
2017-11-29T12:03:57.085Z,99024.52
2017-11-29T12:06:58.553Z,99000.95
2017-11-29T12:10:00.009Z,99018.33
2017-11-29T12:13:01.398Z,99015.98
2017-11-29T12:16:03.561Z,99019.45
2017-11-29T12:19:05.017Z,99013.96
2017-11-29T12:22:07.137Z,99016.89
2017-11-29T12:25:08.513Z,99010.08
2017-11-29T12:28:09.999Z,99008.48
2017-11-29T12:31:11.510Z,98998.78
2017-11-29T12:34:12.949Z,99001.50
2017-11-29T12:37:14.396Z,99000.34
2017-11-29T12:40:15.781Z,98996.86
2017-11-29T12:43:17.155Z,98994.39
2017-11-29T12:46:19.304Z,98992.08
2017-11-29T12:49:39.286Z,98999.14
2017-11-29T12:52:40.687Z,98986.85
2017-11-29T12:55:42.149Z,98990.38
2017-11-29T12:58:43.561Z,98965.80
2017-11-29T13:01:45.684Z,98988.48
2017-11-29T13:04:47.046Z,98988.44
2017-11-29T13:07:49.179Z,98988.31
2017-11-29T13:10:50.688Z,98989.40
2017-11-29T13:13:52.151Z,98992.64
2017-11-29T13:16:54.250Z,98989.23
2017-11-29T13:19:55.641Z,98985.81
2017-11-29T13:22:57.001Z,98990.20
2017-11-29T13:25:58.405Z,98992.16
2017-11-29T13:28:59.815Z,98998.62
2017-11-29T13:32:01.195Z,98983.04
2017-11-29T13:35:02.549Z,98995.32
2017-11-29T13:38:03.908Z,98999.56
2017-11-29T13:41:05.590Z,98999.27
2017-11-29T13:44:06.934Z,98999.12
2017-11-29T13:47:08.404Z,98997.63
2017-11-29T13:50:09.764Z,99003.20
2017-11-29T13:53:11.141Z,99005.98
2017-11-29T13:56:13.242Z,99002.89
2017-11-29T13:59:14.695Z,98998.72
2017-11-29T14:02:16.035Z,99002.77
2017-11-29T14:05:18.320Z,99004.08
2017-11-29T14:08:19.699Z,99014.26
2017-11-29T14:11:21.082Z,99014.27
2017-11-29T14:14:23.150Z,99011.84
2017-11-29T14:17:25.175Z,99021.08
2017-11-29T14:20:26.518Z,99021.22
2017-11-29T14:23:27.944Z,99024.81
2017-11-29T14:26:29.224Z,99021.15
2017-11-29T14:29:30.580Z,99022.12
2017-11-29T14:32:31.934Z,99023.89
2017-11-29T14:35:33.279Z,99031.16
2017-11-29T14:38:34.634Z,99030.25
2017-11-29T14:41:36.037Z,99033.48
2017-11-29T14:44:38.098Z,99035.64
2017-11-29T14:47:47.637Z,99031.95
2017-11-29T14:50:49.730Z,99032.86
2017-11-29T14:53:58.071Z,99034.48
2017-11-29T14:56:59.423Z,99039.27
2017-11-29T15:00:00.746Z,99035.81
2017-11-29T15:03:02.125Z,99039.48
2017-11-29T15:06:03.396Z,99044.86
2017-11-29T15:09:04.706Z,99042.16
2017-11-29T15:12:06.020Z,99040.03
2017-11-29T15:15:08.093Z,99036.03
2017-11-29T15:18:09.420Z,99039.94
2017-11-29T15:21:10.741Z,99031.32
2017-11-29T15:24:12.116Z,99028.38
2017-11-29T15:27:13.460Z,99040.92
2017-11-29T15:30:14.837Z,99040.34
2017-11-29T15:33:16.939Z,99034.72
2017-11-29T15:36:18.300Z,99038.73
2017-11-29T15:39:19.644Z,99053.17
2017-11-29T15:42:21.039Z,99040.44
2017-11-29T15:45:23.185Z,99048.28
2017-11-29T15:48:24.568Z,99052.78
2017-11-29T15:51:26.658Z,99050.89
2017-11-29T15:54:27.988Z,99052.08
2017-11-29T15:57:29.333Z,99047.00
2017-11-29T16:00:31.421Z,99044.75
2017-11-29T16:03:32.813Z,99046.31
2017-11-29T16:06:34.140Z,99052.53
2017-11-29T16:09:35.517Z,99052.09
2017-11-29T16:12:37.664Z,99049.45
2017-11-29T16:15:38.986Z,99044.41
2017-11-29T16:18:40.360Z,99051.29
2017-11-29T16:21:41.685Z,99066.84
2017-11-29T16:24:50.817Z,99057.70
2017-11-29T16:27:53.041Z,99053.39
2017-11-29T16:30:54.429Z,99060.82
2017-11-29T16:33:56.543Z,99056.73
2017-11-29T16:36:57.879Z,99068.77
2017-11-29T16:39:59.233Z,99072.98
2017-11-29T16:43:00.586Z,99071.30
2017-11-29T16:46:01.940Z,99066.17
2017-11-29T16:49:03.267Z,99064.80
2017-11-29T16:52:04.627Z,99065.86
2017-11-29T16:55:05.961Z,99075.83
2017-11-29T16:58:07.312Z,99074.91
2017-11-29T17:01:08.654Z,99071.70
2017-11-29T17:04:10.755Z,99073.61
2017-11-29T17:07:12.138Z,99077.30
2017-11-29T17:10:13.484Z,99075.31
2017-11-29T17:13:14.846Z,99082.38
2017-11-29T17:16:16.211Z,99085.73
2017-11-29T17:19:18.317Z,99085.44
2017-11-29T17:22:19.709Z,99077.14
2017-11-29T17:25:21.075Z,99082.20
2017-11-29T17:28:22.395Z,99079.15
2017-11-29T17:31:23.813Z,99085.69
2017-11-29T17:34:25.147Z,99086.98
2017-11-29T17:37:27.247Z,99095.37
2017-11-29T17:40:28.585Z,99097.56
2017-11-29T17:43:29.923Z,99091.88
2017-11-29T17:46:31.314Z,99094.52
2017-11-29T17:49:34.034Z,99087.95
2017-11-29T17:52:35.472Z,99099.38
2017-11-29T17:55:38.472Z,99092.41
2017-11-29T17:58:41.551Z,99099.36
2017-11-29T18:01:45.190Z,99098.59
2017-11-29T18:04:47.174Z,99094.79
2017-11-29T18:07:51.170Z,99099.02
2017-11-29T18:10:53.199Z,99100.82
2017-11-29T18:13:55.795Z,99102.08
2017-11-29T18:16:57.992Z,99104.23
2017-11-29T18:20:00.108Z,99098.73
2017-11-29T18:23:02.121Z,99095.24
2017-11-29T18:26:05.079Z,99098.73
2017-11-29T18:29:07.291Z,99108.33
2017-11-29T18:32:09.410Z,99111.94
2017-11-29T18:35:11.647Z,99106.64
2017-11-29T18:38:13.146Z,99114.56
2017-11-29T18:41:15.340Z,99118.64
2017-11-29T18:44:17.249Z,99123.00
2017-11-29T18:47:18.741Z,99111.66
2017-11-29T18:50:21.086Z,99119.22
2017-11-29T18:53:22.572Z,99125.32
2017-11-29T18:56:24.992Z,99122.28
2017-11-29T18:59:26.529Z,99135.28
2017-11-29T19:02:28.018Z,99136.03
2017-11-29T19:05:29.531Z,99135.25
2017-11-29T19:08:31.023Z,99140.54
2017-11-29T19:11:32.528Z,99134.79
2017-11-29T19:14:34.771Z,99126.28
2017-11-29T19:17:36.266Z,99132.54
2017-11-29T19:20:38.529Z,99136.61
2017-11-29T19:23:42.070Z,99134.42
2017-11-29T19:26:43.825Z,99134.42
2017-11-29T19:29:45.275Z,99138.38
2017-11-29T19:32:46.931Z,99134.05
2017-11-29T19:35:48.844Z,99138.19
2017-11-29T19:38:51.322Z,99130.78
2017-11-29T19:41:55.532Z,99140.42
2017-11-29T19:44:57.515Z,99133.81
2017-11-29T19:48:00.025Z,99136.45
2017-11-29T19:51:02.236Z,99133.45
2017-11-29T19:54:04.545Z,99138.80
2017-11-29T19:57:07.863Z,99144.80
2017-11-29T20:00:10.748Z,99138.55
2017-11-29T20:03:12.865Z,99137.23
2017-11-29T20:06:16.116Z,99140.98
2017-11-29T20:09:20.477Z,99136.14
2017-11-29T20:12:22.913Z,99135.77
2017-11-29T20:15:25.806Z,99129.72
2017-11-29T20:18:28.410Z,99141.59
2017-11-29T20:21:31.715Z,99147.41
2017-11-29T20:24:36.605Z,99140.02
2017-11-29T20:27:38.614Z,99139.42
2017-11-29T20:30:41.715Z,99150.32
2017-11-29T20:33:44.448Z,99138.48
2017-11-29T20:36:48.664Z,99144.11
2017-11-29T20:39:51.801Z,99142.48
2017-11-29T20:42:56.115Z,99134.30
2017-11-29T20:45:58.181Z,99140.39
2017-11-29T20:49:01.312Z,99135.88
2017-11-29T20:52:07.537Z,99140.29
2017-11-29T20:55:09.773Z,99139.85
2017-11-29T20:58:12.317Z,99139.52
2017-11-29T21:01:15.225Z,99140.79
2017-11-29T21:04:18.168Z,99137.72
2017-11-29T21:07:20.241Z,99137.30
2017-11-29T21:10:22.040Z,99125.85
2017-11-29T21:13:23.571Z,99135.25
2017-11-29T21:16:26.428Z,99129.76
2017-11-29T21:19:27.901Z,99134.25
2017-11-29T21:22:29.297Z,99125.63
2017-11-29T21:25:30.707Z,99122.85
2017-11-29T21:28:32.184Z,99127.75
2017-11-29T21:31:33.635Z,99116.80
2017-11-29T21:34:36.003Z,99113.26
2017-11-29T21:37:38.153Z,99114.73
2017-11-29T21:40:39.551Z,99110.27
2017-11-29T21:43:40.967Z,99118.88
2017-11-29T21:46:42.349Z,99121.59
2017-11-29T21:49:43.687Z,99120.72
2017-11-29T21:52:45.833Z,99117.73
2017-11-29T21:55:47.537Z,99115.66
2017-11-29T21:58:48.963Z,99118.27
2017-11-29T22:01:51.175Z,99127.42
2017-11-29T22:04:52.564Z,99120.88
2017-11-29T22:07:53.942Z,99120.71
2017-11-29T22:10:56.111Z,99122.41
2017-11-29T22:13:57.606Z,99126.72
2017-11-29T22:16:59.039Z,99124.58
2017-11-29T22:20:01.186Z,99122.93
2017-11-29T22:23:02.563Z,99129.76
2017-11-29T22:26:04.738Z,99129.86
2017-11-29T22:29:06.207Z,99133.78
2017-11-29T22:32:07.634Z,99125.94
2017-11-29T22:35:09.795Z,99124.92
2017-11-29T22:38:11.255Z,99132.42
2017-11-29T22:41:12.717Z,99128.77
2017-11-29T22:44:14.154Z,99119.92
2017-11-29T22:47:15.593Z,99127.85
2017-11-29T22:50:17.018Z,99130.86
2017-11-29T22:53:18.418Z,99130.38
2017-11-29T22:56:19.899Z,99133.47
2017-11-29T22:59:21.334Z,99122.45
2017-11-29T23:02:22.786Z,99131.69
2017-11-29T23:05:24.162Z,99120.32
2017-11-29T23:08:25.813Z,99107.81
2017-11-29T23:11:28.127Z,99101.20
2017-11-29T23:14:29.610Z,99112.52
2017-11-29T23:17:31.218Z,99126.16
2017-11-29T23:20:33.350Z,99123.50
2017-11-29T23:23:34.792Z,99111.73
2017-11-29T23:26:36.199Z,99113.92
2017-11-29T23:29:38.362Z,99118.27
2017-11-29T23:32:39.879Z,99110.00
2017-11-29T23:35:41.311Z,99107.38
2017-11-29T23:38:42.704Z,99096.46
2017-11-29T23:41:44.079Z,99109.95
2017-11-29T23:44:46.210Z,99107.30
2017-11-29T23:47:47.629Z,99099.08
2017-11-29T23:50:49.014Z,99108.21
2017-11-29T23:53:50.458Z,99111.26
2017-11-29T23:56:51.922Z,99104.25
2017-11-29T23:59:54.054Z,99099.84
